Open Full Screen Window  High Contrast Mode
Wind Gusting 00 knots
10
September 21, 2014 5:10 PM CDT
Weather Information
Wind Direction
  020 °
Wind Speed
  10 kt (12 mph)
Wind Gust
  00 kt (0 mph)
Altimeter
30.24 in
Visibility
10 SM
Temperature
19° C
66° F
Dewpoint
07° C
45° F
Humidity
46%
1hr Rain Fall
00.00 in.
24hr Rain Fall
00.00 in.
Sky Condition
Scattered @ 5,000 ft
VFR

METAR KMDS 212210Z AUTO 02010KT 10SM SCT050 19/07 A3024 RMK AO2

*Background is not an actual portrayal of the airport.